Time;durP1;ratioP1;P1;durP2;ratioP2;P2;SDS_P1;SDS_P2;PMS_P1;PMS_P2;Temp;Humidity;BMP_temperature;BMP_pressure;BME280_temperature;BME280_humidity;BME280_pressure;Samples;Min_cycle;Max_cycle;Signal;HPM_P1;HPM_P2
2022/03/21 00:01:16;;;;;;;15.32;9.60;;;5.40;36.50;;;;;;5073399;28;20389;-72
2022/03/21 00:03:42;;;;;;;14.25;9.27;;;5.40;36.70;;;;;;5071204;28;20021;-73
2022/03/21 00:06:08;;;;;;;15.95;9.40;;;5.40;36.70;;;;;;5073273;28;20056;-72
2022/03/21 00:08:34;;;;;;;18.42;10.23;;;5.40;36.70;;;;;;5073131;28;20016;-74
2022/03/21 00:11:01;;;;;;;18.98;9.82;;;5.40;36.60;;;;;;5071072;28;20063;-72
2022/03/21 00:13:27;;;;;;;17.13;10.18;;;5.30;36.50;;;;;;5070801;28;20043;-71
2022/03/21 00:15:54;;;;;;;14.43;9.70;;;5.30;36.60;;;;;;5072583;28;20078;-72
2022/03/21 00:23:50;;;;;;;;;;;5.30;36.50;;;;;;5070656;28;20028;-72
2022/03/21 00:26:16;;;;;;;16.27;8.98;;;5.30;36.80;;;;;;5056099;28;20050;-72
2022/03/21 00:28:42;;;;;;;14.00;9.20;;;5.30;36.70;;;;;;5067181;28;20486;-73
2022/03/21 00:31:07;;;;;;;16.73;9.63;;;5.30;36.70;;;;;;5072289;28;20465;-72
2022/03/21 00:33:36;;;;;;;14.63;8.73;;;5.20;36.70;;;;;;5071724;28;20017;-72
2022/03/21 00:36:02;;;;;;;13.27;8.77;;;5.20;36.70;;;;;;5071386;28;20067;-72
2022/03/21 00:38:28;;;;;;;16.70;9.48;;;5.20;36.70;;;;;;5072773;28;20048;-72
2022/03/21 00:40:54;;;;;;;20.73;8.95;;;5.20;36.80;;;;;;5070840;28;20064;-73
2022/03/21 00:43:22;;;;;;;14.32;9.50;;;5.10;36.80;;;;;;5072737;28;20661;-72
2022/03/21 00:45:50;;;;;;;12.93;8.55;;;5.10;36.80;;;;;;5070125;28;20036;-72
2022/03/21 00:48:16;;;;;;;14.18;8.40;;;5.10;36.90;;;;;;5074900;28;20043;-72
2022/03/21 00:50:42;;;;;;;14.35;8.95;;;5.10;36.90;;;;;;5071637;28;20071;-73
2022/03/21 00:53:08;;;;;;;14.57;8.85;;;5.10;36.80;;;;;;5071110;28;20029;-73
2022/03/21 00:55:34;;;;;;;17.73;9.38;;;5.00;36.70;;;;;;5072388;28;20446;-73
2022/03/21 00:58:00;;;;;;;15.32;8.43;;;5.10;36.80;;;;;;5071129;28;20103;-72
2022/03/21 01:00:28;;;;;;;14.85;8.40;;;5.10;36.70;;;;;;5071778;28;20020;-72
2022/03/21 01:02:56;;;;;;;13.68;8.73;;;5.10;36.70;;;;;;5071737;28;20106;-73
2022/03/21 01:05:22;;;;;;;13.77;8.18;;;5.10;36.50;;;;;;5073160;28;20032;-72
2022/03/21 01:07:50;;;;;;;13.45;8.20;;;5.10;36.50;;;;;;5072753;28;20405;-72
2022/03/21 01:10:17;;;;;;;16.67;8.60;;;5.10;36.50;;;;;;5074044;28;20035;-72
2022/03/21 01:12:44;;;;;;;11.80;7.70;;;5.10;36.60;;;;;;5072982;28;20028;-73
2022/03/21 01:15:15;;;;;;;12.50;7.78;;;5.00;36.50;;;;;;5071994;28;20360;-73
2022/03/21 01:17:42;;;;;;;13.07;7.70;;;5.00;36.70;;;;;;5067770;28;20035;-74
2022/03/21 01:20:09;;;;;;;15.48;8.07;;;5.00;36.70;;;;;;5072002;28;20017;-71
2022/03/21 01:22:35;;;;;;;13.68;7.68;;;5.00;36.70;;;;;;5071879;28;20085;-72
2022/03/21 01:25:01;;;;;;;12.57;7.70;;;5.00;36.80;;;;;;5071354;28;20107;-72
2022/03/21 01:27:27;;;;;;;15.20;8.30;;;5.00;36.90;;;;;;5069388;28;20104;-72
2022/03/21 01:29:53;;;;;;;13.52;8.05;;;5.00;36.90;;;;;;5071619;28;20024;-72
2022/03/21 01:32:18;;;;;;;16.52;7.45;;;5.00;36.90;;;;;;5072714;28;20111;-72
2022/03/21 01:34:44;;;;;;;11.98;7.28;;;5.00;36.90;;;;;;5068311;28;20489;-73
2022/03/21 01:37:10;;;;;;;13.25;7.60;;;5.00;36.90;;;;;;5071356;28;20028;-73
2022/03/21 01:39:36;;;;;;;12.52;7.85;;;5.00;36.90;;;;;;5072047;28;20020;-71
2022/03/21 01:42:01;;;;;;;14.98;7.43;;;5.00;36.80;;;;;;5069127;28;20094;-75
2022/03/21 01:44:27;;;;;;;11.23;7.18;;;5.00;36.80;;;;;;5071589;28;20032;-75
2022/03/21 01:46:54;;;;;;;13.00;8.10;;;5.10;36.80;;;;;;5070117;28;20021;-73
2022/03/21 01:49:20;;;;;;;12.55;6.78;;;5.10;36.80;;;;;;5067789;28;20052;-73
2022/03/21 01:51:45;;;;;;;14.23;6.88;;;5.10;36.80;;;;;;5069124;28;20482;-72
2022/03/21 01:56:57;;;;;;;11.25;6.72;;;5.20;36.70;;;;;;5070728;28;20125;-72
2022/03/21 01:59:24;;;;;;;10.27;6.55;;;5.10;36.70;;;;;;5069624;28;20121;-72
2022/03/21 02:01:50;;;;;;;10.00;7.15;;;5.10;36.80;;;;;;5070515;28;20179;-72
2022/03/21 02:04:15;;;;;;;12.13;7.70;;;5.10;36.70;;;;;;5070920;28;20024;-72
2022/03/21 02:06:45;;;;;;;12.65;7.13;;;5.10;36.70;;;;;;5066332;28;20048;-73
2022/03/21 02:09:11;;;;;;;10.93;6.70;;;5.20;36.80;;;;;;5064429;28;20037;-73
2022/03/21 02:11:38;;;;;;;13.25;7.60;;;5.20;36.80;;;;;;5070042;28;20032;-71
2022/03/21 02:14:06;;;;;;;11.32;6.85;;;5.20;36.70;;;;;;5070044;28;20032;-73
2022/03/21 02:16:34;;;;;;;9.43;6.40;;;5.20;36.70;;;;;;5070839;28;20047;-73
2022/03/21 02:19:30;;;;;;;12.73;7.13;;;5.20;36.70;;;;;;5068472;28;20036;-71
2022/03/21 02:22:47;;;;;;;14.77;6.90;;;5.20;36.70;;;;;;5063326;28;20336;-72
2022/03/21 02:25:31;;;;;;;13.77;7.30;;;5.10;36.70;;;;;;5030814;28;20037;-73
2022/03/21 02:27:59;;;;;;;12.02;7.03;;;5.10;36.80;;;;;;5050128;28;20100;-73
2022/03/21 02:30:28;;;;;;;12.02;7.00;;;5.10;36.90;;;;;;5067835;28;20520;-73
2022/03/21 02:32:55;;;;;;;11.57;6.88;;;5.10;37.00;;;;;;5069334;28;20070;-72
2022/03/21 02:35:22;;;;;;;14.70;7.68;;;5.10;37.10;;;;;;5070760;28;20035;-72
2022/03/21 02:37:49;;;;;;;10.15;6.53;;;5.10;37.10;;;;;;5069801;28;20025;-72
2022/03/21 02:40:18;;;;;;;12.10;7.32;;;5.00;37.10;;;;;;5050073;28;20107;-72
2022/03/21 02:42:44;;;;;;;13.80;7.10;;;5.00;37.20;;;;;;5053096;28;20120;-72
2022/03/21 02:45:10;;;;;;;18.02;7.38;;;5.00;37.30;;;;;;5068592;28;20035;-73
2022/03/21 02:47:35;;;;;;;11.95;6.97;;;5.00;37.30;;;;;;5070516;28;20025;-73
2022/03/21 02:50:03;;;;;;;11.57;6.85;;;5.00;37.30;;;;;;5064947;28;20470;-72
2022/03/21 02:52:29;;;;;;;11.60;7.38;;;5.00;37.50;;;;;;5067466;28;20055;-71
2022/03/21 02:54:57;;;;;;;14.52;8.20;;;5.00;37.50;;;;;;5059034;28;20048;-72
2022/03/21 02:57:22;;;;;;;15.80;7.50;;;5.00;37.60;;;;;;5069017;28;20025;-72
2022/03/21 02:59:48;;;;;;;10.35;6.70;;;5.00;37.50;;;;;;5069737;28;20032;-73
2022/03/21 03:02:13;;;;;;;15.52;8.00;;;5.00;37.40;;;;;;5070241;28;20035;-72
2022/03/21 03:04:39;;;;;;;11.88;7.50;;;5.00;37.50;;;;;;5068591;28;20035;-73
2022/03/21 03:07:05;;;;;;;13.40;7.45;;;5.00;37.50;;;;;;5069420;28;20420;-72
2022/03/21 03:09:31;;;;;;;12.90;6.97;;;5.00;37.50;;;;;;5065301;28;20059;-72
2022/03/21 03:11:57;;;;;;;13.00;8.10;;;5.00;37.50;;;;;;5066058;28;20538;-73
2022/03/21 03:14:22;;;;;;;11.57;6.90;;;5.00;37.40;;;;;;5067919;28;20029;-72
2022/03/21 03:16:48;;;;;;;12.60;6.93;;;5.00;37.30;;;;;;5069479;28;20031;-73
2022/03/21 03:19:14;;;;;;;11.48;7.10;;;5.10;37.30;;;;;;5068093;28;20024;-73
2022/03/21 03:21:44;;;;;;;12.38;6.68;;;5.10;37.30;;;;;;5069073;28;20115;-74
2022/03/21 03:24:11;;;;;;;12.38;7.05;;;5.10;37.20;;;;;;5069585;28;20028;-73
2022/03/21 03:26:37;;;;;;;11.85;7.35;;;5.10;37.10;;;;;;5067240;28;20355;-73
2022/03/21 03:29:03;;;;;;;12.23;7.15;;;5.10;37.10;;;;;;5068060;28;20039;-72
2022/03/21 03:31:30;;;;;;;11.80;7.15;;;5.00;37.10;;;;;;5069979;28;20052;-72
2022/03/21 03:33:57;;;;;;;12.35;6.88;;;5.00;37.20;;;;;;5069222;28;20036;-73
2022/03/21 03:36:23;;;;;;;12.05;6.88;;;4.90;37.30;;;;;;5070211;28;20387;-72
2022/03/21 03:38:49;;;;;;;11.90;7.00;;;4.80;37.50;;;;;;5069638;28;20025;-73
2022/03/21 03:41:16;;;;;;;11.65;6.93;;;4.60;37.70;;;;;;5068307;28;20020;-72
2022/03/21 03:43:45;;;;;;;13.75;7.05;;;4.60;38.60;;;;;;5059737;28;20021;-73
2022/03/21 03:46:11;;;;;;;11.48;7.07;;;4.50;38.20;;;;;;5066740;28;20120;-72
2022/03/21 03:48:38;;;;;;;11.15;7.00;;;4.50;39.10;;;;;;5068483;28;20020;-72
2022/03/21 03:51:04;;;;;;;11.57;7.07;;;4.50;38.60;;;;;;5069252;28;20098;-73
2022/03/21 03:53:30;;;;;;;11.60;6.95;;;4.60;38.60;;;;;;5069663;28;20029;-74
2022/03/21 03:55:56;;;;;;;15.35;7.57;;;4.50;38.50;;;;;;5067608;28;20435;-74
2022/03/21 03:58:21;;;;;;;14.10;7.10;;;4.60;38.60;;;;;;5069966;28;20505;-72
2022/03/21 04:00:47;;;;;;;11.52;7.28;;;4.60;38.60;;;;;;5066030;28;20021;-73
2022/03/21 04:05:57;;;;;;;13.02;7.35;;;4.60;38.60;;;;;;5069187;28;20342;-72
2022/03/21 04:08:24;;;;;;;13.50;7.93;;;4.60;38.50;;;;;;5068301;28;20025;-73
2022/03/21 04:10:50;;;;;;;13.25;7.28;;;4.50;38.60;;;;;;5069004;28;20157;-69
2022/03/21 04:13:15;;;;;;;14.32;7.85;;;4.50;38.60;;;;;;5068887;28;20056;-72
2022/03/21 04:15:41;;;;;;;15.68;8.18;;;4.50;38.60;;;;;;5069003;28;20021;-73
2022/03/21 04:18:07;;;;;;;17.42;8.60;;;4.60;38.70;;;;;;5073706;28;20036;-73
2022/03/21 04:20:33;;;;;;;13.85;8.75;;;4.60;38.90;;;;;;5070913;28;20013;-72
2022/03/21 04:23:00;;;;;;;14.15;8.95;;;4.50;39.00;;;;;;5072394;28;20028;-72
2022/03/21 04:25:27;;;;;;;16.70;8.68;;;4.40;39.30;;;;;;5087314;28;20127;-72
2022/03/21 04:27:53;;;;;;;15.45;8.60;;;4.30;39.60;;;;;;5092908;28;20077;-71
2022/03/21 04:30:20;;;;;;;16.60;9.18;;;4.30;39.90;;;;;;5093314;28;20469;-72
2022/03/21 04:32:46;;;;;;;14.50;8.40;;;4.20;40.10;;;;;;5085720;28;20020;-72
2022/03/21 04:35:30;;;;;;;15.98;9.32;;;4.10;40.40;;;;;;5083392;28;20024;-73
2022/03/21 04:37:56;;;;;;;16.95;9.07;;;4.10;40.60;;;;;;5052348;28;20032;-72
2022/03/21 04:40:23;;;;;;;17.65;9.82;;;4.00;41.10;;;;;;5068881;28;20028;-72
2022/03/21 04:42:49;;;;;;;21.15;10.18;;;3.90;41.20;;;;;;5092350;28;20082;-72
2022/03/21 04:45:14;;;;;;;19.40;9.88;;;3.90;41.50;;;;;;5091888;28;20027;-72
2022/03/21 04:47:40;;;;;;;19.95;9.63;;;3.80;41.80;;;;;;5093066;28;20051;-73
2022/03/21 04:50:09;;;;;;;15.65;9.55;;;3.80;42.00;;;;;;5085821;28;20111;-73
2022/03/21 04:52:36;;;;;;;15.48;9.63;;;3.80;42.20;;;;;;5080195;28;20093;-72
2022/03/21 04:55:03;;;;;;;17.40;10.07;;;3.70;42.10;;;;;;5063024;28;20067;-72
2022/03/21 04:57:29;;;;;;;18.67;10.27;;;3.80;42.30;;;;;;5051492;28;20017;-71
2022/03/21 04:59:55;;;;;;;14.50;9.48;;;3.70;42.30;;;;;;5064093;28;20028;-73
2022/03/21 05:02:21;;;;;;;16.20;9.27;;;3.70;42.30;;;;;;5071253;28;20024;-72
2022/03/21 05:04:47;;;;;;;17.48;9.82;;;3.70;42.30;;;;;;5071482;28;20425;-73
2022/03/21 05:07:16;;;;;;;17.63;10.90;;;3.80;42.40;;;;;;5074702;28;20044;-71
2022/03/21 05:09:42;;;;;;;14.32;9.77;;;3.80;42.10;;;;;;5068328;28;20020;-73
2022/03/21 05:12:10;;;;;;;19.50;10.60;;;3.80;42.60;;;;;;5066334;28;20039;-72
2022/03/21 05:14:35;;;;;;;16.40;10.02;;;3.80;42.00;;;;;;5073608;28;20055;-71
2022/03/21 05:17:02;;;;;;;19.88;10.32;;;3.90;41.90;;;;;;5069266;28;20323;-72
2022/03/21 05:19:28;;;;;;;20.35;10.43;;;4.00;41.80;;;;;;5065001;28;20137;-72
2022/03/21 05:21:53;;;;;;;18.40;10.48;;;4.00;41.70;;;;;;5066387;28;20025;-71
2022/03/21 05:32:32;;;;;;;18.33;10.27;;;3.90;41.50;;;;;;5067963;28;20104;-73
2022/03/21 05:37:41;;;;;;;17.40;10.27;;;3.90;41.60;;;;;;5071591;28;20071;-73
2022/03/21 05:42:52;;;;;;;19.80;10.35;;;4.00;41.50;;;;;;5069634;28;20059;-73
2022/03/21 05:45:19;;;;;;;22.60;11.20;;;4.10;41.30;;;;;;5071347;28;20024;-73
2022/03/21 05:50:32;;;;;;;22.42;10.70;;;4.20;41.00;;;;;;5067493;28;20040;-72
2022/03/21 05:52:58;;;;;;;19.95;11.00;;;4.20;40.70;;;;;;5067188;28;20741;-69
2022/03/21 05:55:24;;;;;;;21.90;11.35;;;4.20;40.60;;;;;;5059717;28;20393;-72
2022/03/21 05:57:50;;;;;;;21.45;11.98;;;4.30;40.40;;;;;;5070135;28;20028;-69
2022/03/21 06:00:21;;;;;;;20.17;11.77;;;4.30;40.50;;;;;;5070509;28;20016;-66
2022/03/21 06:02:48;;;;;;;20.08;12.20;;;4.30;40.50;;;;;;5069974;28;20718;-69
2022/03/21 06:05:14;;;;;;;23.80;13.70;;;4.30;40.50;;;;;;5072232;28;20025;-67
2022/03/21 06:07:40;;;;;;;21.00;12.27;;;4.50;40.40;;;;;;5072293;28;20048;-66
2022/03/21 06:10:06;;;;;;;23.75;12.75;;;4.50;40.20;;;;;;5071375;28;20270;-66
2022/03/21 06:12:32;;;;;;;21.83;11.55;;;4.60;40.00;;;;;;5070604;28;20025;-67
2022/03/21 06:14:58;;;;;;;19.10;11.70;;;4.60;39.70;;;;;;5073604;28;20021;-66
2022/03/21 06:17:24;;;;;;;20.98;12.20;;;4.70;39.60;;;;;;5086333;28;20047;-67
2022/03/21 06:19:49;;;;;;;19.58;11.70;;;4.70;39.50;;;;;;5087353;28;20023;-67
2022/03/21 06:22:15;;;;;;;20.33;12.25;;;4.70;39.40;;;;;;5076066;28;20028;-66
2022/03/21 06:24:41;;;;;;;27.52;12.15;;;4.70;39.60;;;;;;5071744;28;20032;-66
2022/03/21 06:27:06;;;;;;;22.60;13.18;;;4.70;39.50;;;;;;5082101;28;20431;-66
2022/03/21 06:29:32;;;;;;;22.13;12.18;;;4.70;39.60;;;;;;5091702;28;20051;-65
2022/03/21 06:31:59;;;;;;;19.75;11.95;;;4.80;39.50;;;;;;5085602;28;20056;-65
2022/03/21 06:34:24;;;;;;;22.30;12.45;;;4.90;39.30;;;;;;5090464;28;20047;-65
2022/03/21 06:36:50;;;;;;;24.63;12.57;;;5.00;39.30;;;;;;5088268;28;20064;-65
2022/03/21 06:39:16;;;;;;;21.55;11.95;;;5.00;39.10;;;;;;5071236;28;20050;-65
2022/03/21 06:41:43;;;;;;;19.95;11.55;;;5.20;39.00;;;;;;5090734;28;20020;-65
2022/03/21 06:44:08;;;;;;;24.17;12.13;;;5.30;38.90;;;;;;5069001;28;20481;-66
2022/03/21 06:46:34;;;;;;;17.27;10.52;;;5.30;38.50;;;;;;5070373;28;20064;-65
2022/03/21 06:49:00;;;;;;;20.60;11.95;;;5.30;38.30;;;;;;5075754;28;20141;-68
2022/03/21 06:51:26;;;;;;;24.02;11.60;;;5.20;38.30;;;;;;5073829;28;20063;-65
2022/03/21 06:53:52;;;;;;;20.02;11.55;;;5.30;38.50;;;;;;5068020;28;20038;-65
2022/03/21 06:56:17;;;;;;;23.25;12.55;;;5.30;38.30;;;;;;5053380;28;20032;-65
2022/03/21 06:58:43;;;;;;;16.40;11.05;;;5.40;38.40;;;;;;5090860;28;20469;-65
2022/03/21 07:01:09;;;;;;;18.42;10.85;;;5.50;38.20;;;;;;5078633;28;20330;-65
2022/03/21 07:03:35;;;;;;;20.00;11.73;;;5.70;37.90;;;;;;5062277;28;20025;-66
2022/03/21 07:06:00;;;;;;;19.75;11.77;;;5.80;37.70;;;;;;5078126;28;20036;-65
2022/03/21 07:08:26;;;;;;;19.80;12.30;;;5.90;37.50;;;;;;5071120;28;20134;-64
2022/03/21 07:10:52;;;;;;;20.77;12.43;;;6.00;37.30;;;;;;5070397;28;20024;-67
2022/03/21 07:13:19;;;;;;;26.02;11.50;;;6.10;37.10;;;;;;5071224;28;20499;-65
2022/03/21 07:15:44;;;;;;;17.00;11.20;;;6.30;36.80;;;;;;5071014;28;20024;-64
2022/03/21 07:18:10;;;;;;;25.40;11.13;;;6.40;36.60;;;;;;5070035;28;20028;-65
2022/03/21 07:20:37;;;;;;;17.33;11.48;;;6.50;36.30;;;;;;5053530;28;20025;-65
2022/03/21 07:23:03;;;;;;;19.55;10.68;;;6.70;36.20;;;;;;5050489;28;20029;-64
2022/03/21 07:25:29;;;;;;;17.20;11.70;;;7.10;35.00;;;;;;5049702;28;20021;-65
2022/03/21 07:27:55;;;;;;;18.85;12.50;;;7.80;34.90;;;;;;5050225;28;20538;-66
2022/03/21 07:30:21;;;;;;;20.38;13.07;;;11.10;32.80;;;;;;5050968;28;20034;-66
2022/03/21 07:32:47;;;;;;;18.73;13.35;;;14.40;29.00;;;;;;5049520;28;20076;-65
2022/03/21 07:35:13;;;;;;;17.90;12.95;;;16.80;26.20;;;;;;5048869;28;20017;-65
2022/03/21 07:37:50;;;;;;;20.35;12.80;;;18.40;24.40;;;;;;5050285;28;20021;-65
2022/03/21 07:40:17;;;;;;;17.55;12.35;;;19.90;23.50;;;;;;5050302;28;20020;-65
2022/03/21 07:42:45;;;;;;;17.52;12.50;;;21.50;22.30;;;;;;5049267;28;20067;-64
2022/03/21 07:47:57;;;;;;;16.83;11.20;;;23.80;21.20;;;;;;5049425;28;20090;-66
2022/03/21 07:50:26;;;;;;;17.10;12.23;;;24.60;20.10;;;;;;5065970;28;20037;-64
2022/03/21 07:52:53;;;;;;;18.50;12.38;;;25.10;19.60;;;;;;5058014;28;20073;-74
2022/03/21 07:55:38;;;;;;;17.83;11.73;;;25.20;19.50;;;;;;5067540;28;20449;-72
2022/03/21 07:58:04;;;;;;;14.77;11.77;;;25.40;19.00;;;;;;5086812;28;20032;-70
2022/03/21 08:00:31;;;;;;;17.38;10.77;;;25.90;19.00;;;;;;5093274;28;20179;-73
2022/03/21 08:02:58;;;;;;;17.15;11.23;;;26.70;19.20;;;;;;5073403;28;20084;-73
2022/03/21 08:05:26;;;;;;;14.15;11.82;;;27.60;19.00;;;;;;5062285;28;20027;-72
2022/03/21 08:07:52;;;;;;;14.48;10.73;;;28.60;18.40;;;;;;5071650;28;20094;-72
2022/03/21 08:10:19;;;;;;;12.98;9.82;;;29.10;18.20;;;;;;5073228;28;20456;-72
2022/03/21 08:12:46;;;;;;;16.30;10.80;;;28.00;17.60;;;;;;5075634;28;20028;-73
2022/03/21 08:15:17;;;;;;;13.18;10.38;;;27.20;18.10;;;;;;5088193;28;20067;-73
2022/03/21 08:18:03;;;;;;;14.52;11.00;;;27.30;18.30;;;;;;5091742;28;20385;-72
2022/03/21 08:20:34;;;;;;;17.67;10.50;;;27.20;18.00;;;;;;5091827;28;20096;-72
2022/03/21 08:23:12;;;;;;;17.42;10.70;;;26.70;18.00;;;;;;5074018;28;20025;-73
2022/03/21 08:25:40;;;;;;;11.02;9.73;;;26.40;18.20;;;;;;5074524;28;20075;-73
2022/03/21 08:28:07;;;;;;;19.63;9.80;;;26.50;17.80;;;;;;5076684;28;20423;-72
2022/03/21 08:30:35;;;;;;;13.60;10.05;;;26.00;17.90;;;;;;5080145;28;20032;-73
2022/03/21 08:33:06;;;;;;;15.32;9.88;;;25.80;18.10;;;;;;5083685;28;20036;-73
2022/03/21 08:35:33;;;;;;;10.93;9.73;;;25.70;18.00;;;;;;5072945;28;20021;-75
2022/03/21 08:37:59;;;;;;;11.60;9.95;;;25.00;18.10;;;;;;5072315;28;20031;-75
2022/03/21 08:40:26;;;;;;;13.50;9.38;;;24.50;18.20;;;;;;5079629;28;20020;-75
2022/03/21 08:42:52;;;;;;;12.50;8.90;;;22.50;18.60;;;;;;5078878;28;20024;-76
2022/03/21 08:45:18;;;;;;;11.98;8.32;;;20.60;19.70;;;;;;5075587;28;20016;-76
2022/03/21 08:47:44;;;;;;;13.48;8.50;;;19.40;20.30;;;;;;5082057;28;20078;-74
2022/03/21 08:50:11;;;;;;;11.50;8.43;;;18.10;20.90;;;;;;5075677;28;20032;-75
2022/03/21 08:52:37;;;;;;;15.48;8.52;;;17.10;21.70;;;;;;5090176;28;20468;-75
2022/03/21 08:55:07;;;;;;;10.63;7.85;;;16.20;22.20;;;;;;5075891;28;20020;-76
2022/03/21 08:57:36;;;;;;;13.23;7.82;;;15.70;22.50;;;;;;5070425;28;20025;-76
2022/03/21 09:00:05;;;;;;;15.82;7.70;;;14.70;23.20;;;;;;5072919;28;20099;-75
2022/03/21 09:02:31;;;;;;;11.07;8.18;;;14.00;23.80;;;;;;5073066;28;20037;-77
2022/03/21 09:04:58;;;;;;;10.07;7.88;;;13.30;24.40;;;;;;5072597;28;20025;-74
2022/03/21 09:07:24;;;;;;;13.10;7.78;;;12.70;25.00;;;;;;5083151;28;20041;-73
2022/03/21 09:09:50;;;;;;;11.52;7.82;;;12.30;25.10;;;;;;5067471;28;20054;-75
2022/03/21 09:12:16;;;;;;;11.18;7.43;;;12.00;25.40;;;;;;5082787;28;20056;-73
2022/03/21 09:14:42;;;;;;;12.88;7.40;;;11.70;25.60;;;;;;5069784;28;20028;-74
2022/03/21 09:17:08;;;;;;;13.73;7.65;;;11.50;25.90;;;;;;5070656;28;20020;-77
2022/03/21 09:19:34;;;;;;;14.57;7.80;;;11.50;26.00;;;;;;5082090;28;20025;-74
2022/03/21 09:22:01;;;;;;;16.60;7.75;;;11.40;25.90;;;;;;5079482;28;20106;-75
2022/03/21 09:24:27;;;;;;;12.48;7.32;;;11.30;25.90;;;;;;5091966;28;20024;-75
2022/03/21 09:26:52;;;;;;;12.32;8.02;;;11.00;25.80;;;;;;5092020;28;20388;-75
2022/03/21 09:29:19;;;;;;;11.10;7.10;;;10.90;25.80;;;;;;5083126;28;20235;-72
2022/03/21 09:31:47;;;;;;;9.18;7.28;;;10.90;26.00;;;;;;5073495;28;20039;-74
2022/03/21 09:34:14;;;;;;;14.07;8.07;;;10.90;26.10;;;;;;5077444;28;20163;-76
2022/03/21 09:36:40;;;;;;;10.73;7.38;;;10.80;26.30;;;;;;5077129;28;20032;-75
2022/03/21 09:39:12;;;;;;;14.27;7.80;;;10.80;26.00;;;;;;5067691;28;20021;-75
2022/03/21 09:41:38;;;;;;;14.63;7.65;;;10.70;25.90;;;;;;5056287;28;20097;-73
2022/03/21 09:44:09;;;;;;;9.70;7.28;;;10.70;26.00;;;;;;5053562;28;20067;-74
2022/03/21 09:46:39;;;;;;;14.02;7.40;;;10.80;25.80;;;;;;5059862;28;20027;-75
2022/03/21 09:49:10;;;;;;;16.58;9.45;;;10.90;25.90;;;;;;5069354;28;20061;-74
2022/03/21 09:51:38;;;;;;;14.10;9.90;;;11.00;26.10;;;;;;5067363;28;20024;-73
2022/03/21 09:54:03;;;;;;;12.05;8.05;;;11.10;26.20;;;;;;5083012;28;20418;-70
2022/03/21 09:56:30;;;;;;;11.95;8.98;;;11.20;26.00;;;;;;5060055;28;20028;-67
2022/03/21 09:59:01;;;;;;;13.43;7.90;;;11.30;26.60;;;;;;5071736;28;20277;-68
2022/03/21 10:01:32;;;;;;;13.18;8.00;;;11.30;26.20;;;;;;5080791;28;20035;-69
2022/03/21 10:03:59;;;;;;;11.35;7.75;;;11.30;26.20;;;;;;5071129;28;20420;-67
2022/03/21 10:06:30;;;;;;;12.15;7.60;;;11.20;25.90;;;;;;5066464;28;20047;-69
2022/03/21 10:09:06;;;;;;;12.52;7.47;;;11.20;26.10;;;;;;5081065;28;20040;-67
2022/03/21 10:11:32;;;;;;;14.70;7.75;;;11.30;25.70;;;;;;5073676;28;20024;-67
2022/03/21 10:14:00;;;;;;;12.02;7.28;;;11.40;25.70;;;;;;5077821;28;20031;-68
2022/03/21 10:16:26;;;;;;;13.10;7.40;;;11.50;25.50;;;;;;5079815;28;20385;-67
2022/03/21 10:18:52;;;;;;;12.75;7.15;;;11.50;25.50;;;;;;5082710;28;20044;-67
2022/03/21 10:21:19;;;;;;;10.25;7.07;;;11.60;25.30;;;;;;5091172;28;20077;-68
2022/03/21 10:23:56;;;;;;;11.27;7.68;;;11.60;25.20;;;;;;5092437;28;20093;-68
2022/03/21 10:26:31;;;;;;;11.65;7.15;;;11.60;25.30;;;;;;5073388;28;20212;-68
2022/03/21 10:29:02;;;;;;;12.25;7.57;;;11.70;25.00;;;;;;5061619;28;20017;-67
2022/03/21 10:31:46;;;;;;;11.98;7.68;;;11.60;25.10;;;;;;5079727;28;20024;-69
2022/03/21 10:34:16;;;;;;;15.60;7.20;;;11.70;25.20;;;;;;5083110;28;20047;-67
2022/03/21 10:37:09;;;;;;;12.35;7.72;;;11.70;24.90;;;;;;5050364;28;20032;-68
2022/03/21 10:39:38;;;;;;;9.90;7.47;;;11.60;25.00;;;;;;5051906;28;20195;-68
2022/03/21 10:42:06;;;;;;;12.07;7.88;;;11.70;24.90;;;;;;5057968;28;20206;-68
2022/03/21 10:44:33;;;;;;;13.30;8.52;;;11.70;24.80;;;;;;5068689;28;20040;-67
2022/03/21 10:47:06;;;;;;;16.75;8.10;;;11.90;24.90;;;;;;5067692;28;20107;-68
2022/03/21 10:49:35;;;;;;;11.33;7.37;;;12.10;25.00;;;;;;5069412;28;20040;-69
2022/03/21 10:52:02;;;;;;;11.30;7.38;;;12.20;24.70;;;;;;5070275;28;20546;-68
2022/03/21 10:54:39;;;;;;;15.02;9.15;;;12.10;24.30;;;;;;5072462;28;20051;-69
2022/03/21 10:57:07;;;;;;;14.13;8.98;;;12.20;24.80;;;;;;5068247;28;20091;-68
2022/03/21 10:59:34;;;;;;;9.73;6.82;;;12.30;24.90;;;;;;5067293;28;20028;-70
2022/03/21 11:02:19;;;;;;;10.13;7.13;;;12.30;24.20;;;;;;5065368;28;20060;-70
2022/03/21 11:04:45;;;;;;;9.57;7.00;;;12.40;24.50;;;;;;5062794;28;20024;-69
2022/03/21 11:07:12;;;;;;;10.00;6.97;;;12.40;24.30;;;;;;5061480;28;20516;-70
2022/03/21 11:09:40;;;;;;;10.23;7.10;;;12.30;24.00;;;;;;5061561;28;20032;-68
2022/03/21 11:12:10;;;;;;;13.45;7.45;;;12.30;23.80;;;;;;5069257;28;20142;-69
2022/03/21 11:14:39;;;;;;;12.73;7.63;;;12.50;24.00;;;;;;5066159;28;20040;-68
2022/03/21 11:17:06;;;;;;;11.93;7.57;;;12.50;24.00;;;;;;5069984;28;20013;-68
2022/03/21 11:19:33;;;;;;;12.35;6.72;;;12.60;23.80;;;;;;5071030;28;20024;-70
2022/03/21 11:22:02;;;;;;;14.48;8.00;;;12.60;23.90;;;;;;5072047;28;20032;-68
2022/03/21 11:24:34;;;;;;;12.50;6.78;;;12.60;24.10;;;;;;5070728;28;20016;-69
2022/03/21 11:27:35;;;;;;;11.43;6.80;;;12.80;23.70;;;;;;5078883;28;20104;-69
2022/03/21 11:30:17;;;;;;;11.07;6.35;;;12.90;23.50;;;;;;5085060;28;20052;-68
2022/03/21 11:33:10;;;;;;;14.00;7.30;;;12.80;23.20;;;;;;5078975;28;20276;-68
2022/03/21 11:35:37;;;;;;;9.95;6.90;;;12.90;23.30;;;;;;5077598;28;20021;-68
2022/03/21 11:38:29;;;;;;;10.98;6.63;;;13.20;23.30;;;;;;5068451;28;20477;-70
2022/03/21 11:41:18;;;;;;;10.70;6.32;;;13.10;22.90;;;;;;5086898;28;20119;-69
2022/03/21 11:44:06;;;;;;;9.77;7.00;;;12.80;23.00;;;;;;5080375;28;20024;-69
2022/03/21 11:46:34;;;;;;;12.20;6.90;;;12.70;23.30;;;;;;5081216;28;20031;-68
2022/03/21 11:49:03;;;;;;;12.02;6.93;;;12.90;23.30;;;;;;5082477;28;20020;-68
2022/03/21 11:51:41;;;;;;;14.98;7.07;;;12.90;23.30;;;;;;5069376;28;20021;-69
2022/03/21 11:54:32;;;;;;;12.00;7.13;;;13.00;23.20;;;;;;5071285;28;20112;-69
2022/03/21 11:56:59;;;;;;;10.95;7.13;;;13.20;23.20;;;;;;5071793;28;20477;-69
2022/03/21 11:59:34;;;;;;;8.85;6.47;;;13.40;23.20;;;;;;5064583;28;20021;-66
2022/03/21 12:02:00;;;;;;;10.90;5.97;;;13.60;22.70;;;;;;5063935;28;20193;-78
2022/03/21 12:04:30;;;;;;;11.65;7.10;;;13.60;22.50;;;;;;5068949;28;20028;-68
2022/03/21 12:07:20;;;;;;;9.82;6.50;;;13.60;22.50;;;;;;5072264;28;20139;-72
2022/03/21 12:09:48;;;;;;;11.98;7.07;;;13.50;22.70;;;;;;5067821;28;20056;-73
2022/03/21 12:12:16;;;;;;;8.85;6.93;;;13.70;22.60;;;;;;5065488;28;20100;-70
2022/03/21 12:14:54;;;;;;;9.23;6.38;;;13.80;22.50;;;;;;5063455;28;20043;-74
2022/03/21 12:17:23;;;;;;;12.32;6.90;;;13.80;22.20;;;;;;5064961;28;20025;-74
2022/03/21 12:19:57;;;;;;;9.32;6.47;;;13.90;22.50;;;;;;5074387;28;20127;-73
2022/03/21 12:22:35;;;;;;;9.45;6.82;;;14.00;22.20;;;;;;5071587;28;20109;-64
2022/03/21 12:25:25;;;;;;;12.35;6.38;;;14.10;22.10;;;;;;5064138;28;20103;-72
2022/03/21 12:27:55;;;;;;;11.40;6.28;;;14.20;22.20;;;;;;5069935;28;20020;-70
2022/03/21 12:30:22;;;;;;;13.13;7.50;;;14.20;22.30;;;;;;5066300;28;20032;-70
2022/03/21 12:32:48;;;;;;;11.52;6.75;;;14.20;22.20;;;;;;5068402;28;20189;-70
2022/03/21 12:35:34;;;;;;;10.18;7.38;;;14.10;21.90;;;;;;5065754;28;20034;-69
2022/03/21 12:38:04;;;;;;;14.63;7.93;;;13.90;22.10;;;;;;5066898;28;20273;-72
2022/03/21 12:40:31;;;;;;;8.48;6.38;;;14.00;21.90;;;;;;5066773;28;20021;-75
2022/03/21 12:42:59;;;;;;;11.63;8.40;;;13.90;22.00;;;;;;5068762;28;20481;-79
2022/03/21 12:45:25;;;;;;;9.65;7.30;;;14.00;22.00;;;;;;5070044;28;20060;-69
2022/03/21 12:47:52;;;;;;;9.43;6.75;;;14.20;22.00;;;;;;5070446;28;20028;-74
2022/03/21 12:50:23;;;;;;;11.18;7.28;;;14.30;21.90;;;;;;5069066;28;20032;-72
2022/03/21 12:52:54;;;;;;;10.35;6.82;;;14.20;21.90;;;;;;5072173;28;20028;-79
2022/03/21 12:55:20;;;;;;;10.50;6.75;;;14.30;21.90;;;;;;5056926;28;20028;-70
2022/03/21 12:58:01;;;;;;;9.60;6.82;;;14.40;21.80;;;;;;5072633;28;20027;-74
2022/03/21 13:00:31;;;;;;;12.70;6.45;;;14.50;21.60;;;;;;5071152;28;20142;-81
2022/03/21 13:02:57;;;;;;;11.20;6.95;;;14.50;21.60;;;;;;5071983;28;20119;-66
2022/03/21 13:11:01;;;;;;;12.20;7.07;;;14.40;21.70;;;;;;5058080;28;20306;-72
2022/03/21 13:13:39;;;;;;;11.57;6.53;;;14.40;21.70;;;;;;5053397;28;20048;-68
2022/03/21 13:16:11;;;;;;;11.88;6.90;;;14.20;21.60;;;;;;5044704;28;20028;-70
2022/03/21 13:18:39;;;;;;;10.57;6.68;;;14.00;21.70;;;;;;5055082;28;20029;-70
2022/03/21 13:21:06;;;;;;;9.80;6.53;;;14.10;21.90;;;;;;5072010;28;20085;-67
2022/03/21 13:23:36;;;;;;;11.57;6.00;;;13.90;21.50;;;;;;5069420;28;20042;-70